ePrivacy and GPDR Cookie Consent by Cookie Consent
EmailTwitter


Observations de surface / France / LFBP (07610)

Régions: Québec | Canada | États-Unis | Europe | France | UK | Ailleurs
Station
Affichage
Infos & localisation pour LFBP (07610) | Aide pour décoder les METARs

Observations prises le 2021-06-21 à 21H30 UTC à PONT-LONG-UZEIN/, FR (LFBP)

Etat du ciel: ciel variable.

Température: 15.0 Celsius

Point de rosée: 14.0 Celsius

Humidité relative: 94%

Vents: Sud à 6 km/h ou 3 noeuds.

Pression au niveau moyen de la mer: 101.40 kilopascals.

Visibilité horizontale: 6.21 milles terrestres ou 9.94 kilomètres.

Observation METAR:

LFBP 212130Z AUTO 17003KT 9999 FEW026 SCT100 15/14 Q1014 NOSIG=